createdAt,value
2019-03-04T00:01:11.485Z,12.60
2019-03-04T00:03:40.333Z,12.60
2019-03-04T00:06:09.221Z,12.60
2019-03-04T00:08:38.056Z,12.60
2019-03-04T00:11:07.042Z,12.70
2019-03-04T00:13:35.874Z,12.70
2019-03-04T00:16:05.103Z,12.70
2019-03-04T00:18:34.033Z,12.70
2019-03-04T00:21:02.883Z,12.90
2019-03-04T00:23:31.714Z,13.00
2019-03-04T00:26:00.628Z,13.10
2019-03-04T00:28:29.471Z,13.10
2019-03-04T00:30:58.290Z,13.00
2019-03-04T00:33:27.479Z,13.10
2019-03-04T00:35:56.287Z,13.10
2019-03-04T00:38:25.112Z,13.20
2019-03-04T00:40:53.981Z,13.20
2019-03-04T00:43:22.964Z,13.10
2019-03-04T00:45:51.818Z,13.10
2019-03-04T00:48:20.726Z,13.10
2019-03-04T00:50:49.531Z,13.10
2019-03-04T00:53:18.377Z,13.10
2019-03-04T00:55:47.275Z,13.10
2019-03-04T00:58:16.726Z,13.10
2019-03-04T01:00:45.640Z,13.10
2019-03-04T01:03:14.533Z,13.20
2019-03-04T01:05:43.336Z,13.10
2019-03-04T01:08:12.200Z,13.00
2019-03-04T01:10:41.003Z,13.00
2019-03-04T01:13:09.831Z,13.00
2019-03-04T01:15:38.749Z,12.90
2019-03-04T01:18:07.702Z,12.90
2019-03-04T01:20:36.604Z,13.00
2019-03-04T01:23:05.599Z,12.90
2019-03-04T01:25:34.408Z,12.90
2019-03-04T01:28:03.305Z,12.90
2019-03-04T01:30:32.470Z,12.90
2019-03-04T01:33:01.351Z,12.80
2019-03-04T01:35:30.236Z,12.80
2019-03-04T01:37:59.143Z,12.80
2019-03-04T01:40:28.037Z,12.90
2019-03-04T01:42:56.960Z,12.80
2019-03-04T01:45:26.076Z,12.80
2019-03-04T01:47:54.944Z,12.80
2019-03-04T01:50:24.076Z,12.80
2019-03-04T01:52:52.989Z,12.90
2019-03-04T01:55:21.823Z,12.90
2019-03-04T01:57:50.662Z,12.80
2019-03-04T02:00:20.272Z,12.80
2019-03-04T02:02:49.228Z,12.80
2019-03-04T02:05:18.901Z,12.80
2019-03-04T02:07:47.886Z,12.70
2019-03-04T02:10:18.108Z,12.80
2019-03-04T02:12:47.479Z,12.80
2019-03-04T02:15:17.799Z,12.80
2019-03-04T02:17:46.670Z,12.90
2019-03-04T02:20:17.076Z,12.80
2019-03-04T02:22:46.427Z,12.90
2019-03-04T02:25:16.877Z,12.90
2019-03-04T02:27:48.599Z,12.90
2019-03-04T02:30:23.524Z,12.90
2019-03-04T02:32:52.426Z,12.90
2019-03-04T02:35:21.479Z,12.90
2019-03-04T02:37:50.400Z,13.00
2019-03-04T02:40:19.792Z,13.00
2019-03-04T02:42:48.727Z,12.90
2019-03-04T02:45:18.758Z,12.90
2019-03-04T02:47:48.073Z,13.00
2019-03-04T02:50:17.114Z,13.00
2019-03-04T02:52:46.168Z,13.00
2019-03-04T02:55:17.183Z,13.10
2019-03-04T02:57:46.121Z,13.20
2019-03-04T03:00:16.397Z,13.30
2019-03-04T03:02:46.096Z,13.40
2019-03-04T03:05:15.492Z,13.40
2019-03-04T03:07:44.426Z,13.40
2019-03-04T03:10:13.532Z,13.30
2019-03-04T03:12:42.474Z,13.20
2019-03-04T03:15:11.759Z,13.10
2019-03-04T03:17:40.690Z,13.10
2019-03-04T03:20:10.710Z,13.10
2019-03-04T03:22:39.655Z,13.10
2019-03-04T03:25:08.879Z,13.20
2019-03-04T03:27:37.774Z,13.00
2019-03-04T03:30:08.243Z,13.00
2019-03-04T03:32:37.131Z,13.00
2019-03-04T03:35:08.425Z,12.90
2019-03-04T03:37:37.791Z,13.00
2019-03-04T03:40:08.509Z,12.80
2019-03-04T03:42:37.370Z,12.90
2019-03-04T03:45:07.018Z,12.80
2019-03-04T03:47:35.901Z,12.80
2019-03-04T03:50:05.821Z,12.90
2019-03-04T03:52:34.654Z,12.90
2019-03-04T03:55:03.607Z,13.10
2019-03-04T03:57:32.498Z,13.10
2019-03-04T04:00:01.391Z,13.10
2019-03-04T04:02:30.374Z,13.20
2019-03-04T04:04:59.337Z,13.20
2019-03-04T04:07:28.142Z,13.20
2019-03-04T04:09:57.030Z,13.10
2019-03-04T04:12:25.860Z,13.10
2019-03-04T04:14:54.972Z,13.30
2019-03-04T04:17:23.796Z,13.20
2019-03-04T04:19:53.153Z,13.20
2019-03-04T04:22:22.281Z,13.20
2019-03-04T04:24:51.269Z,13.20
2019-03-04T04:27:20.075Z,13.20
2019-03-04T04:29:48.895Z,13.20
2019-03-04T04:32:17.734Z,13.20
2019-03-04T04:34:46.664Z,13.20
2019-03-04T04:37:15.477Z,13.20
2019-03-04T04:39:44.381Z,13.10
2019-03-04T04:42:13.225Z,13.10
2019-03-04T04:44:42.138Z,13.10
2019-03-04T04:47:11.233Z,13.10
2019-03-04T04:49:40.137Z,13.10
2019-03-04T04:52:09.120Z,13.00
2019-03-04T04:54:38.294Z,12.90
2019-03-04T04:57:07.967Z,12.80
2019-03-04T04:59:36.794Z,12.80
2019-03-04T05:02:05.602Z,12.70
2019-03-04T05:04:34.592Z,12.60
2019-03-04T05:07:03.501Z,12.70
2019-03-04T05:09:32.307Z,12.60
2019-03-04T05:12:01.149Z,12.50
2019-03-04T05:14:30.268Z,12.50
2019-03-04T05:16:59.195Z,12.50
2019-03-04T05:19:28.011Z,12.50
2019-03-04T05:21:57.495Z,12.50
2019-03-04T05:24:26.372Z,12.50
2019-03-04T05:26:55.191Z,12.60
2019-03-04T05:29:24.124Z,12.60
2019-03-04T05:31:52.927Z,12.60
2019-03-04T05:34:22.067Z,12.60
2019-03-04T05:36:50.963Z,12.70
2019-03-04T05:39:19.844Z,12.80
2019-03-04T05:41:48.693Z,12.80
2019-03-04T05:44:17.507Z,12.80
2019-03-04T05:46:46.411Z,12.80
2019-03-04T05:49:15.247Z,12.80
2019-03-04T05:51:44.142Z,13.00
2019-03-04T05:54:12.971Z,13.00
2019-03-04T05:56:41.807Z,13.10
2019-03-04T05:59:19.347Z,13.20
2019-03-04T06:01:44.524Z,13.10
2019-03-04T06:04:13.759Z,13.20
2019-03-04T06:07:13.263Z,13.20
2019-03-04T06:09:42.159Z,13.20
2019-03-04T06:12:11.490Z,13.20
2019-03-04T06:14:41.279Z,13.20
2019-03-04T06:17:10.240Z,13.20
2019-03-04T06:19:39.151Z,13.20
2019-03-04T06:22:08.363Z,13.10
2019-03-04T06:24:37.182Z,13.00
2019-03-04T06:27:06.028Z,11.10
2019-03-04T06:29:35.829Z,10.10
2019-03-04T06:32:05.343Z,9.60
2019-03-04T06:34:34.221Z,9.30
2019-03-04T06:37:04.364Z,9.20
2019-03-04T06:39:33.155Z,9.10
2019-03-04T06:42:02.415Z,9.10
2019-03-04T06:44:31.204Z,9.10
2019-03-04T06:47:00.033Z,9.00
2019-03-04T06:49:28.907Z,8.80
2019-03-04T06:51:58.164Z,8.70
2019-03-04T06:55:04.070Z,8.60
2019-03-04T06:57:48.616Z,8.50
2019-03-04T07:00:40.905Z,8.40
2019-03-04T07:03:31.195Z,8.40
2019-03-04T07:06:00.072Z,8.50
2019-03-04T07:09:01.289Z,8.50
2019-03-04T07:11:31.035Z,8.50
2019-03-04T07:13:59.992Z,8.60
2019-03-04T07:16:28.935Z,8.60
2019-03-04T07:18:57.783Z,8.60
2019-03-04T07:21:26.662Z,8.70
2019-03-04T07:23:55.888Z,8.80
2019-03-04T07:26:24.865Z,8.90
2019-03-04T07:28:53.772Z,9.00
2019-03-04T07:31:22.659Z,9.10
2019-03-04T07:33:51.479Z,9.20
2019-03-04T07:36:20.326Z,9.40
2019-03-04T07:38:57.303Z,9.50
2019-03-04T07:41:28.946Z,9.60
2019-03-04T07:43:57.784Z,9.70
2019-03-04T07:46:26.835Z,9.60
2019-03-04T07:48:56.048Z,9.40
2019-03-04T07:51:25.141Z,9.40
2019-03-04T07:53:54.653Z,9.50
2019-03-04T07:56:23.700Z,9.60
2019-03-04T07:58:52.687Z,9.70
2019-03-04T08:01:21.764Z,9.70
2019-03-04T08:03:50.643Z,9.90
2019-03-04T08:06:19.467Z,10.00
2019-03-04T08:12:40.803Z,10.10
2019-03-04T08:15:10.852Z,10.20
2019-03-04T08:17:39.776Z,10.30
2019-03-04T08:20:11.074Z,10.30
2019-03-04T08:22:40.841Z,10.30
2019-03-04T08:25:13.113Z,10.30
2019-03-04T08:27:42.813Z,10.30
2019-03-04T08:30:20.536Z,10.30
2019-03-04T08:32:49.540Z,10.20
2019-03-04T08:35:19.027Z,10.10
2019-03-04T08:37:48.219Z,10.10
2019-03-04T08:40:18.142Z,10.30
2019-03-04T08:42:47.117Z,10.40
2019-03-04T08:45:17.856Z,10.50
2019-03-04T08:47:47.164Z,10.70
2019-03-04T08:50:17.380Z,10.80
2019-03-04T08:52:46.348Z,10.90
2019-03-04T08:55:16.368Z,10.90
2019-03-04T08:57:45.731Z,11.00
2019-03-04T09:00:17.460Z,11.10
2019-03-04T09:02:46.494Z,11.10
2019-03-04T09:05:15.611Z,11.20
2019-03-04T09:07:44.817Z,11.30
2019-03-04T09:12:56.775Z,11.40
2019-03-04T09:15:26.049Z,11.30
2019-03-04T09:17:55.318Z,11.40
2019-03-04T09:20:24.543Z,11.30
2019-03-04T09:22:53.983Z,11.30
2019-03-04T09:25:30.662Z,11.40
2019-03-04T09:27:59.879Z,11.40
2019-03-04T09:30:29.731Z,11.40
2019-03-04T09:32:59.440Z,11.50
2019-03-04T09:35:28.743Z,11.60
2019-03-04T09:37:57.724Z,11.60
2019-03-04T09:40:28.311Z,11.60
2019-03-04T09:42:57.431Z,11.90
2019-03-04T09:45:26.500Z,12.00
2019-03-04T09:47:55.928Z,12.00
2019-03-04T09:50:25.797Z,12.10
2019-03-04T09:52:54.706Z,12.10
2019-03-04T09:55:24.107Z,11.90
2019-03-04T09:57:53.071Z,11.80
2019-03-04T10:00:30.191Z,11.90
2019-03-04T10:03:18.597Z,12.00
2019-03-04T10:09:07.073Z,11.90
2019-03-04T10:11:48.971Z,11.90
2019-03-04T10:15:08.389Z,12.10
2019-03-04T10:17:49.578Z,12.60
2019-03-04T10:20:57.779Z,12.80
2019-03-04T10:23:50.496Z,13.00
2019-03-04T10:27:12.683Z,12.90
2019-03-04T10:30:23.125Z,12.80
2019-03-04T10:33:32.020Z,12.60
2019-03-04T10:39:33.799Z,12.70
2019-03-04T10:42:36.870Z,12.80
2019-03-04T10:45:50.069Z,12.70
2019-03-04T10:48:18.900Z,12.40
2019-03-04T10:50:47.776Z,12.30
2019-03-04T10:53:16.600Z,12.20
2019-03-04T10:55:45.440Z,12.20
2019-03-04T10:58:14.659Z,12.20
2019-03-04T11:00:43.959Z,12.20
2019-03-04T11:03:12.905Z,12.20
2019-03-04T11:05:41.763Z,12.20
2019-03-04T11:08:22.134Z,12.20
2019-03-04T11:10:51.059Z,12.10
2019-03-04T11:13:19.937Z,12.20
2019-03-04T11:15:48.974Z,12.30
2019-03-04T11:18:18.029Z,12.20
2019-03-04T11:20:47.349Z,12.20
2019-03-04T11:23:16.319Z,12.20
2019-03-04T11:25:45.362Z,12.20
2019-03-04T11:28:14.311Z,12.10
2019-03-04T11:30:43.239Z,12.10
2019-03-04T11:33:12.499Z,12.10
2019-03-04T11:35:41.513Z,12.00
2019-03-04T11:38:33.496Z,11.90
2019-03-04T11:41:02.510Z,11.70
2019-03-04T11:43:32.046Z,11.60
2019-03-04T11:46:01.475Z,11.60
2019-03-04T11:48:31.078Z,11.40
2019-03-04T11:50:59.991Z,9.30
2019-03-04T11:53:29.142Z,8.10
2019-03-04T11:55:58.046Z,7.90
2019-03-04T11:58:27.023Z,7.60
2019-03-04T12:01:10.494Z,7.40
2019-03-04T12:03:39.379Z,7.20
2019-03-04T12:06:08.695Z,7.00
2019-03-04T12:08:38.373Z,6.90
2019-03-04T12:11:07.334Z,6.80
2019-03-04T12:13:36.302Z,6.80
2019-03-04T12:16:05.782Z,6.80
2019-03-04T12:18:35.349Z,6.80
2019-03-04T12:21:04.483Z,6.90
2019-03-04T12:23:33.404Z,7.00
2019-03-04T12:26:02.425Z,7.00
2019-03-04T12:28:31.595Z,7.00
2019-03-04T12:31:00.531Z,7.10
2019-03-04T12:33:29.493Z,7.10
2019-03-04T12:35:58.371Z,7.10
2019-03-04T12:38:27.196Z,7.20
2019-03-04T12:40:56.068Z,7.20
2019-03-04T12:43:24.967Z,7.20
2019-03-04T12:45:54.351Z,7.30
2019-03-04T12:48:23.343Z,7.40
2019-03-04T12:50:52.586Z,7.60
2019-03-04T12:53:21.827Z,7.70
2019-03-04T12:55:50.767Z,7.70
2019-03-04T12:58:19.650Z,7.90
2019-03-04T13:00:48.684Z,8.00
2019-03-04T13:03:20.479Z,8.10
2019-03-04T13:05:49.347Z,8.30
2019-03-04T13:08:18.340Z,8.20
2019-03-04T13:10:47.295Z,8.20
2019-03-04T13:13:17.732Z,8.20
2019-03-04T13:15:48.213Z,8.20
2019-03-04T13:18:18.003Z,8.30
2019-03-04T13:20:47.284Z,8.40
2019-03-04T13:23:16.188Z,8.70
2019-03-04T13:25:45.043Z,8.60
2019-03-04T13:28:14.175Z,8.60
2019-03-04T13:30:43.710Z,8.60
2019-03-04T13:33:12.818Z,8.90
2019-03-04T13:35:41.790Z,8.90
2019-03-04T13:38:10.785Z,9.00
2019-03-04T13:40:39.756Z,8.80
2019-03-04T13:43:08.659Z,8.70
2019-03-04T13:45:37.730Z,8.70
2019-03-04T13:48:06.740Z,8.70
2019-03-04T13:50:37.122Z,8.60
2019-03-04T13:53:06.519Z,8.60
2019-03-04T13:55:35.871Z,8.70
2019-03-04T13:58:05.456Z,8.80
2019-03-04T14:00:34.680Z,9.00
2019-03-04T14:03:04.049Z,9.10
2019-03-04T14:05:32.995Z,9.30
2019-03-04T14:08:02.022Z,9.30
2019-03-04T14:10:33.237Z,9.20
2019-03-04T14:13:02.212Z,9.20
2019-03-04T14:15:33.117Z,9.20
2019-03-04T14:18:02.161Z,9.20
2019-03-04T14:20:31.590Z,9.30
2019-03-04T14:23:00.510Z,9.40
2019-03-04T14:25:29.448Z,9.30
2019-03-04T14:27:58.357Z,9.30
2019-03-04T14:30:27.383Z,9.40
2019-03-04T14:32:56.304Z,9.40
2019-03-04T14:35:25.546Z,9.50
2019-03-04T14:37:54.550Z,9.30
2019-03-04T14:40:23.564Z,9.30
2019-03-04T14:42:54.915Z,9.40
2019-03-04T14:45:23.605Z,9.40
2019-03-04T14:47:52.600Z,9.40
2019-03-04T14:50:21.689Z,9.50
2019-03-04T14:52:50.695Z,9.60
2019-03-04T14:55:19.800Z,9.50
2019-03-04T14:57:48.820Z,9.50
2019-03-04T15:00:22.072Z,9.50
2019-03-04T15:02:56.316Z,9.50
2019-03-04T15:05:25.284Z,9.50
2019-03-04T15:07:55.660Z,9.40
2019-03-04T15:10:24.886Z,9.40
2019-03-04T15:12:53.822Z,9.50
2019-03-04T15:15:23.052Z,9.50
2019-03-04T15:17:51.983Z,9.50
2019-03-04T15:20:21.863Z,9.50
2019-03-04T15:22:50.999Z,9.50
2019-03-04T15:25:22.740Z,9.50
2019-03-04T15:27:52.146Z,9.50
2019-03-04T15:30:21.485Z,9.50
2019-03-04T15:32:50.309Z,9.50
2019-03-04T15:35:19.610Z,9.40
2019-03-04T15:37:48.589Z,9.50
2019-03-04T15:40:17.779Z,9.50
2019-03-04T15:42:47.050Z,9.50
2019-03-04T15:45:16.073Z,9.60
2019-03-04T15:47:45.070Z,9.60
2019-03-04T15:50:14.401Z,9.60
2019-03-04T15:52:45.235Z,9.70
2019-03-04T15:55:14.686Z,9.80
2019-03-04T15:57:44.282Z,9.80
2019-03-04T16:00:13.294Z,9.80
2019-03-04T16:02:44.553Z,9.80
2019-03-04T16:05:14.317Z,9.80
2019-03-04T16:07:43.239Z,9.90
2019-03-04T16:10:12.513Z,9.90
2019-03-04T16:12:43.062Z,9.90
2019-03-04T16:15:14.009Z,10.00
2019-03-04T16:17:43.283Z,9.80
2019-03-04T16:20:16.244Z,9.70
2019-03-04T16:22:44.731Z,9.70
2019-03-04T16:25:13.961Z,9.70
2019-03-04T16:27:43.082Z,9.70
2019-03-04T16:30:14.856Z,9.80
2019-03-04T16:32:43.995Z,9.80
2019-03-04T16:35:13.297Z,9.80
2019-03-04T16:37:42.613Z,9.70
2019-03-04T16:40:14.069Z,9.70
2019-03-04T16:42:43.043Z,9.70
2019-03-04T16:45:13.911Z,9.60
2019-03-04T16:47:42.932Z,9.60
2019-03-04T16:50:13.345Z,9.50
2019-03-04T16:52:42.872Z,9.40
2019-03-04T16:55:13.567Z,9.40
2019-03-04T16:57:42.646Z,9.40
2019-03-04T17:00:14.812Z,9.30
2019-03-04T17:02:44.019Z,9.30
2019-03-04T17:05:14.959Z,9.20
2019-03-04T17:07:44.195Z,9.20
2019-03-04T17:10:13.651Z,9.20
2019-03-04T17:12:42.622Z,9.10
2019-03-04T17:15:13.706Z,9.10
2019-03-04T17:17:42.731Z,9.00
2019-03-04T17:20:12.290Z,8.90
2019-03-04T17:22:41.264Z,8.90
2019-03-04T17:25:12.120Z,8.80
2019-03-04T17:27:41.525Z,8.80
2019-03-04T17:30:12.684Z,8.70
2019-03-04T17:32:41.811Z,8.70
2019-03-04T17:35:11.803Z,8.70
2019-03-04T17:37:40.871Z,8.70
2019-03-04T17:40:11.528Z,8.70
2019-03-04T17:42:41.013Z,8.70
2019-03-04T17:45:12.198Z,8.60
2019-03-04T17:47:41.140Z,8.70
2019-03-04T17:50:12.114Z,8.70
2019-03-04T17:52:41.276Z,8.70
2019-03-04T17:55:11.942Z,8.60
2019-03-04T17:57:41.289Z,8.70
2019-03-04T18:00:13.090Z,8.60
2019-03-04T18:02:42.067Z,8.60
2019-03-04T18:05:11.254Z,8.60
2019-03-04T18:07:40.762Z,8.60
2019-03-04T18:10:12.051Z,8.60
2019-03-04T18:12:41.219Z,8.60
2019-03-04T18:15:13.406Z,8.60
2019-03-04T18:17:42.487Z,8.60
2019-03-04T18:20:12.360Z,8.50
2019-03-04T18:22:41.392Z,8.50
2019-03-04T18:25:14.899Z,8.50
2019-03-04T18:28:05.355Z,8.40
2019-03-04T18:30:55.423Z,8.40
2019-03-04T18:33:38.387Z,8.40
2019-03-04T18:36:19.579Z,8.40
2019-03-04T18:39:10.378Z,8.30
2019-03-04T18:42:08.787Z,8.30
2019-03-04T18:45:03.962Z,8.30
2019-03-04T18:48:26.069Z,8.20
2019-03-04T18:50:55.184Z,8.20
2019-03-04T18:53:24.070Z,8.20
2019-03-04T18:55:53.007Z,8.20
2019-03-04T18:58:22.165Z,8.20
2019-03-04T19:00:50.998Z,8.20
2019-03-04T19:03:19.920Z,8.20
2019-03-04T19:05:49.255Z,8.10
2019-03-04T19:08:18.449Z,8.00
2019-03-04T19:10:47.716Z,8.00
2019-03-04T19:13:16.914Z,8.00
2019-03-04T19:15:45.951Z,7.90
2019-03-04T19:18:14.978Z,7.90
2019-03-04T19:20:44.129Z,7.90
2019-03-04T19:23:13.172Z,7.90
2019-03-04T19:25:42.207Z,7.90
2019-03-04T19:28:11.843Z,7.90
2019-03-04T19:30:40.987Z,7.80
2019-03-04T19:33:10.123Z,7.80
2019-03-04T19:35:39.412Z,7.80
2019-03-04T19:38:08.610Z,7.70
2019-03-04T19:40:37.702Z,7.70
2019-03-04T19:43:07.018Z,7.60
2019-03-04T19:45:37.929Z,7.70
2019-03-04T19:48:07.111Z,7.70
2019-03-04T19:50:36.259Z,7.60
2019-03-04T19:53:05.679Z,7.70
2019-03-04T19:55:34.765Z,7.60
2019-03-04T19:58:03.937Z,7.60
2019-03-04T20:00:33.884Z,7.60
2019-03-04T20:03:03.061Z,7.60
2019-03-04T20:05:32.523Z,7.60
2019-03-04T20:08:01.614Z,7.60
2019-03-04T20:10:31.365Z,7.50
2019-03-04T20:13:00.353Z,7.50
2019-03-04T20:15:29.456Z,7.50
2019-03-04T20:17:59.149Z,7.50
2019-03-04T20:20:28.367Z,7.60
2019-03-04T20:22:57.330Z,7.60
2019-03-04T20:25:26.845Z,7.60
2019-03-04T20:27:55.839Z,7.80
2019-03-04T20:30:25.684Z,7.90
2019-03-04T20:32:54.847Z,8.00
2019-03-04T20:35:24.027Z,7.90
2019-03-04T20:37:54.026Z,8.00
2019-03-04T20:40:23.041Z,8.10
2019-03-04T20:42:51.991Z,8.20
2019-03-04T20:45:22.471Z,8.20
2019-03-04T20:47:51.535Z,8.30
2019-03-04T20:50:20.534Z,8.30
2019-03-04T20:52:50.160Z,8.20
2019-03-04T20:55:19.522Z,8.10
2019-03-04T20:57:48.491Z,7.90
2019-03-04T21:00:33.728Z,7.70
2019-03-04T21:03:03.650Z,7.50
2019-03-04T21:05:33.071Z,7.40
2019-03-04T21:08:02.485Z,7.30
2019-03-04T21:10:31.486Z,7.20
2019-03-04T21:13:20.804Z,7.10
2019-03-04T21:15:50.035Z,7.10
2019-03-04T21:18:20.089Z,7.00
2019-03-04T21:20:49.522Z,6.80
2019-03-04T21:23:18.691Z,6.90
2019-03-04T21:25:56.956Z,6.90
2019-03-04T21:28:44.206Z,6.80
2019-03-04T21:31:47.261Z,6.80
2019-03-04T21:34:44.222Z,6.80
2019-03-04T21:37:18.493Z,6.80
2019-03-04T21:39:48.570Z,6.80
2019-03-04T21:42:49.944Z,6.90
2019-03-04T21:45:48.402Z,6.90
2019-03-04T21:48:44.385Z,7.00
2019-03-04T21:51:40.888Z,7.10
2019-03-04T21:54:10.410Z,7.10
2019-03-04T21:57:06.931Z,7.20
2019-03-04T21:59:35.804Z,7.30
2019-03-04T22:02:15.353Z,7.30
2019-03-04T22:04:44.502Z,7.30
2019-03-04T22:07:15.099Z,7.40
2019-03-04T22:09:44.092Z,7.40
2019-03-04T22:12:13.651Z,7.40
2019-03-04T22:14:42.862Z,7.40
2019-03-04T22:17:11.815Z,7.50
2019-03-04T22:19:40.731Z,7.50
2019-03-04T22:22:09.735Z,7.60
2019-03-04T22:24:38.570Z,7.60
2019-03-04T22:27:07.593Z,7.70
2019-03-04T22:29:36.568Z,7.70
2019-03-04T22:32:05.480Z,7.70
2019-03-04T22:34:34.434Z,7.70
2019-03-04T22:37:03.244Z,7.80
2019-03-04T22:39:34.085Z,7.80
2019-03-04T22:42:03.039Z,7.80
2019-03-04T22:44:31.861Z,7.80
2019-03-04T22:47:00.857Z,7.80
2019-03-04T22:49:30.097Z,7.90
2019-03-04T22:51:59.015Z,7.80
2019-03-04T22:54:27.970Z,7.90
2019-03-04T22:56:56.903Z,7.90
2019-03-04T22:59:25.843Z,7.90
2019-03-04T23:01:59.545Z,7.90
2019-03-04T23:04:43.871Z,7.90
2019-03-04T23:07:15.035Z,7.90
2019-03-04T23:10:02.827Z,7.90
2019-03-04T23:12:37.065Z,7.80
2019-03-04T23:15:08.002Z,7.90
2019-03-04T23:17:37.080Z,7.90
2019-03-04T23:20:06.766Z,7.80
2019-03-04T23:22:35.605Z,7.80
2019-03-04T23:25:05.077Z,7.80
2019-03-04T23:27:33.879Z,7.70
2019-03-04T23:30:02.805Z,7.70
2019-03-04T23:32:31.632Z,7.80
2019-03-04T23:35:00.509Z,7.70
2019-03-04T23:37:29.492Z,7.80
2019-03-04T23:39:58.329Z,7.80
2019-03-04T23:42:27.258Z,7.80
2019-03-04T23:44:56.063Z,7.90
2019-03-04T23:47:25.019Z,7.90
2019-03-04T23:50:15.833Z,7.80
2019-03-04T23:52:44.789Z,7.80
2019-03-04T23:55:13.965Z,7.80
2019-03-04T23:57:42.876Z,7.70
